Rechercher aéroport 
image banner adimage banner ad
image banner ad

FYKM - Katima Mulilo

Situé à Katima Mulilo, Namibia

ICAO - FYKM, IATA - MPA

Données fournies par Airmate  

Information générale

Coordonnées: S17°38'3" E24°10'36"
Élévation : 3144 feet MSL.
 
Voir autres Aéroports à Caprivi

Données opérationnelles

Accessible au public
Heure actuelle UTC:
Heure actuelle locale:
Météo
TAF: TAF FYKM 290800Z 2909/2918 05010KT CAVOK BECMG 2910/2912 9999 SCT040
Voir NOTAMs / SUP AIP / TFR affectant cet aéroport [VIEW]
Fréquences de communication: [VIEW]

Pistes:

Identifiant RWYQFULongueur (ft)Largeur (ft)SurfaceLDA (ft)
0980°7520128ASP
27260°752069

Coordonnées de l'aéroport

Adresse: Katima Mulilo Namibia

Vue satellite de FYKM